Time;durP1;ratioP1;P1;durP2;ratioP2;P2;SDS_P1;SDS_P2;PMS_P1;PMS_P2;Temp;Humidity;BMP_temperature;BMP_pressure;BME280_temperature;BME280_humidity;BME280_pressure;Samples;Min_cycle;Max_cycle;Signal;HPM_P1;HPM_P2
2022/01/06 00:01:53;;;;;;;27.27;4.55;;;;;;;5.74;100.00;101553.09;5044413;28;20448;-72
2022/01/06 00:04:19;;;;;;;16.08;3.50;;;;;;;5.70;100.00;101569.03;5026336;28;20179;-72
2022/01/06 00:06:45;;;;;;;16.55;3.55;;;;;;;5.75;100.00;101564.81;5041930;28;20040;-70
2022/01/06 00:09:14;;;;;;;18.13;2.90;;;;;;;5.74;100.00;101561.25;5025009;28;20257;-72
2022/01/06 00:11:40;;;;;;;16.05;3.15;;;;;;;5.72;100.00;101574.25;5009732;28;20273;-72
2022/01/06 00:14:23;;;;;;;22.70;3.65;;;;;;;5.82;100.00;101574.53;5043086;28;20029;-72
2022/01/06 00:24:48;;;;;;;21.52;3.33;;;;;;;5.70;100.00;101579.91;5040801;28;20116;-71
2022/01/06 00:27:14;;;;;;;18.55;3.40;;;;;;;5.79;100.00;101571.44;5046552;28;20119;-72
2022/01/06 00:29:40;;;;;;;16.15;3.35;;;;;;;5.85;100.00;101576.78;5044311;28;20045;-72
2022/01/06 00:32:06;;;;;;;19.02;3.20;;;;;;;5.79;100.00;101566.84;5063782;28;20051;-72
2022/01/06 00:34:31;;;;;;;19.80;3.72;;;;;;;5.80;100.00;101568.47;5059923;28;20390;-71
2022/01/06 00:36:57;;;;;;;18.77;2.97;;;;;;;5.77;100.00;101571.69;5062301;28;20043;-70
2022/01/06 00:39:27;;;;;;;14.75;3.40;;;;;;;5.94;100.00;101565.56;5026146;28;20071;-71
2022/01/06 00:41:56;;;;;;;15.60;3.47;;;;;;;5.82;100.00;101581.84;5062801;28;20064;-71
2022/01/06 00:44:23;;;;;;;22.63;3.33;;;;;;;5.78;100.00;101581.50;5064585;28;20110;-71
2022/01/06 00:46:49;;;;;;;23.10;3.25;;;;;;;5.76;100.00;101586.34;5050778;28;20032;-72
2022/01/06 00:49:17;;;;;;;25.35;4.15;;;;;;;5.77;100.00;101581.72;5044032;28;20040;-71
2022/01/06 00:51:42;;;;;;;14.40;3.20;;;;;;;5.79;100.00;101580.44;5041059;28;20070;-71
2022/01/06 00:54:08;;;;;;;15.80;2.83;;;;;;;5.94;100.00;101585.44;5025281;28;20376;-73
2022/01/06 00:56:33;;;;;;;19.08;3.33;;;;;;;5.80;100.00;101592.13;5022567;28;20025;-71
2022/01/06 00:58:58;;;;;;;21.20;3.90;;;;;;;5.82;100.00;101593.59;5027772;28;20072;-71
2022/01/06 01:01:24;;;;;;;20.17;3.28;;;;;;;5.85;100.00;101595.84;5008082;28;20033;-71
2022/01/06 01:03:50;;;;;;;19.23;2.75;;;;;;;5.85;100.00;101600.44;5009957;28;20486;-70
2022/01/06 01:06:15;;;;;;;15.50;2.97;;;;;;;5.80;100.00;101594.88;5043649;28;20567;-73
2022/01/06 01:08:41;;;;;;;13.05;3.20;;;;;;;5.88;100.00;101589.91;5024707;28;20573;-72
2022/01/06 01:11:07;;;;;;;19.92;3.28;;;;;;;5.90;100.00;101592.41;5061166;28;20329;-71
2022/01/06 01:13:37;;;;;;;25.80;4.22;;;;;;;5.80;100.00;101595.69;5062556;28;20372;-70
2022/01/06 01:16:19;;;;;;;22.67;4.22;;;;;;;5.76;100.00;101594.50;5056684;28;20036;-71
2022/01/06 01:18:45;;;;;;;17.50;3.28;;;;;;;5.73;100.00;101597.69;5041565;28;20263;-71
2022/01/06 01:21:11;;;;;;;20.20;3.75;;;;;;;5.78;100.00;101591.56;5043647;28;20556;-71
2022/01/06 01:23:36;;;;;;;19.33;3.38;;;;;;;5.76;100.00;101588.25;5050986;28;20497;-71
2022/01/06 01:26:02;;;;;;;15.23;2.80;;;;;;;5.86;100.00;101602.09;5062451;28;20386;-72
2022/01/06 01:28:33;;;;;;;14.27;2.72;;;;;;;5.88;100.00;101602.69;5061163;28;20526;-71
2022/01/06 01:33:25;;;;;;;19.92;3.35;;;;;;;5.89;100.00;101616.06;5042454;28;20079;-72
2022/01/06 01:35:51;;;;;;;23.05;3.42;;;;;;;5.93;100.00;101615.63;5025486;28;20032;-72
2022/01/06 01:38:16;;;;;;;18.20;2.92;;;;;;;6.03;100.00;101618.63;5025848;28;20372;-71
2022/01/06 01:40:42;;;;;;;15.48;2.70;;;;;;;5.95;100.00;101618.94;5018235;28;20334;-71
2022/01/06 01:43:07;;;;;;;23.42;3.53;;;;;;;5.99;100.00;101631.06;5043189;28;20090;-71
2022/01/06 01:45:34;;;;;;;18.42;3.20;;;;;;;6.07;100.00;101638.91;5040530;28;20028;-71
2022/01/06 01:48:05;;;;;;;16.08;2.80;;;;;;;5.95;100.00;101636.09;5027311;28;20064;-72
2022/01/06 01:50:30;;;;;;;23.15;4.03;;;;;;;5.80;100.00;101639.22;5039462;28;20247;-71
2022/01/06 01:52:57;;;;;;;20.92;3.08;;;;;;;5.75;100.00;101647.25;5041342;28;20044;-70
2022/01/06 01:55:26;;;;;;;15.48;2.83;;;;;;;5.76;100.00;101639.94;5045965;28;20511;-71
2022/01/06 01:57:53;;;;;;;15.23;3.00;;;;;;;5.74;100.00;101637.44;5043395;28;20108;-70
2022/01/06 02:00:21;;;;;;;14.50;2.63;;;;;;;5.76;100.00;101637.22;5043016;28;20033;-72
2022/01/06 02:02:46;;;;;;;14.73;2.78;;;;;;;5.98;100.00;101634.84;5041970;28;20328;-72
2022/01/06 02:05:22;;;;;;;19.75;3.25;;;;;;;5.75;100.00;101641.81;5043441;28;20103;-70
2022/01/06 02:07:47;;;;;;;19.25;2.83;;;;;;;5.66;100.00;101632.31;5042433;28;20362;-70
2022/01/06 02:10:12;;;;;;;28.55;4.45;;;;;;;5.70;100.00;101649.84;5040386;28;20115;-71
2022/01/06 02:12:40;;;;;;;16.27;3.10;;;;;;;5.84;100.00;101654.03;5020739;28;20671;-71
2022/01/06 02:15:08;;;;;;;21.52;3.53;;;;;;;5.84;100.00;101658.66;5062042;28;20680;-71
2022/01/06 02:17:34;;;;;;;17.35;3.72;;;;;;;5.96;100.00;101661.44;5060269;28;20017;-70
2022/01/06 02:20:01;;;;;;;21.80;3.70;;;;;;;5.95;100.00;101671.50;5061757;28;20040;-71
2022/01/06 02:22:28;;;;;;;25.13;3.30;;;;;;;5.83;100.00;101660.53;5062503;28;20119;-71
2022/01/06 02:24:54;;;;;;;18.05;3.33;;;;;;;5.86;100.00;101653.81;5051958;28;20044;-72
2022/01/06 02:27:20;;;;;;;15.45;3.10;;;;;;;5.75;100.00;101658.13;5039687;28;20037;-72
2022/01/06 02:29:47;;;;;;;13.15;2.88;;;;;;;5.85;100.00;101669.31;5041822;28;20513;-71
2022/01/06 02:32:16;;;;;;;18.73;3.30;;;;;;;5.78;100.00;101668.56;5059175;28;20043;-71
2022/01/06 02:34:41;;;;;;;18.02;3.20;;;;;;;5.89;100.00;101670.50;5061324;28;20290;-70
2022/01/06 02:37:07;;;;;;;15.98;2.78;;;;;;;5.67;100.00;101674.78;5042674;28;20441;-70
2022/01/06 02:39:32;;;;;;;13.98;2.88;;;;;;;5.48;100.00;101673.97;5059023;28;20029;-71
2022/01/06 02:41:58;;;;;;;11.07;2.00;;;;;;;5.46;100.00;101687.81;5053803;28;20386;-72
2022/01/06 02:44:25;;;;;;;8.43;1.23;;;;;;;5.42;100.00;101680.31;5043329;28;20051;-72
2022/01/06 02:46:52;;;;;;;7.80;1.60;;;;;;;5.43;100.00;101679.28;5039447;28;20264;-71
2022/01/06 02:49:17;;;;;;;10.20;1.75;;;;;;;5.68;100.00;101685.44;5058681;28;20056;-72
2022/01/06 02:51:43;;;;;;;12.30;2.00;;;;;;;5.79;100.00;101686.56;5060226;28;20032;-72
2022/01/06 02:54:09;;;;;;;6.43;1.55;;;;;;;5.63;100.00;101684.47;5062183;28;20505;-71
2022/01/06 02:56:34;;;;;;;10.32;1.85;;;;;;;5.63;100.00;101682.56;5037175;28;20051;-71
2022/01/06 02:59:00;;;;;;;11.90;1.83;;;;;;;5.56;100.00;101672.81;5024348;28;20060;-71
2022/01/06 03:01:25;;;;;;;11.93;1.75;;;;;;;5.76;100.00;101673.41;5024461;28;20088;-71
2022/01/06 03:03:51;;;;;;;7.30;1.55;;;;;;;6.04;100.00;101672.03;5039266;28;20324;-71
2022/01/06 03:06:16;;;;;;;11.02;2.00;;;;;;;6.11;100.00;101667.31;5024560;28;20040;-71
2022/01/06 03:08:42;;;;;;;15.05;2.95;;;;;;;6.16;100.00;101672.88;5039499;28;20082;-71
2022/01/06 03:11:08;;;;;;;10.23;1.70;;;;;;;5.87;100.00;101675.34;5021688;28;20113;-71
2022/01/06 03:13:34;;;;;;;17.27;2.70;;;;;;;5.63;100.00;101689.91;5039335;28;20032;-72
2022/01/06 03:16:01;;;;;;;14.95;2.33;;;;;;;5.28;100.00;101693.22;5040241;28;20037;-71
2022/01/06 03:18:27;;;;;;;13.57;2.25;;;;;;;4.76;100.00;101697.06;5007971;28;20090;-73
2022/01/06 03:20:53;;;;;;;12.77;1.63;;;;;;;5.06;100.00;101676.53;5037779;28;20044;-72
2022/01/06 03:23:19;;;;;;;10.10;1.67;;;;;;;5.27;100.00;101689.69;5042822;28;20036;-72
2022/01/06 03:25:44;;;;;;;7.95;1.38;;;;;;;5.02;100.00;101680.75;5035556;28;20025;-71
2022/01/06 03:28:10;;;;;;;10.75;1.73;;;;;;;5.11;100.00;101684.84;5042200;28;20478;-71
2022/01/06 03:30:36;;;;;;;11.95;1.95;;;;;;;5.24;100.00;101687.41;5025146;28;20479;-70
2022/01/06 03:33:01;;;;;;;10.07;2.10;;;;;;;5.01;100.00;101690.78;5044683;28;20106;-71
2022/01/06 03:35:27;;;;;;;12.40;2.25;;;;;;;4.95;100.00;101695.25;5026378;28;20041;-71
2022/01/06 03:37:52;;;;;;;7.05;1.80;;;;;;;5.03;100.00;101712.31;5041829;28;20087;-71
2022/01/06 03:40:19;;;;;;;12.02;1.50;;;;;;;4.86;100.00;101707.44;5042846;28;20096;-71
2022/01/06 03:42:45;;;;;;;16.38;2.47;;;;;;;4.87;100.00;101713.69;5041537;28;20044;-71
2022/01/06 03:45:15;;;;;;;14.20;2.33;;;;;;;4.84;100.00;101716.84;5028972;28;20515;-72
2022/01/06 03:47:41;;;;;;;16.23;2.47;;;;;;;4.98;100.00;101712.97;5042459;28;20833;-72
2022/01/06 03:50:08;;;;;;;12.70;2.17;;;;;;;4.93;100.00;101705.47;5043976;28;20056;-72
2022/01/06 03:52:34;;;;;;;12.65;2.15;;;;;;;4.96;100.00;101712.38;5011087;28;20039;-71
2022/01/06 03:55:01;;;;;;;16.98;2.78;;;;;;;4.90;100.00;101716.81;5040225;28;20048;-71
2022/01/06 03:57:26;;;;;;;10.45;2.05;;;;;;;5.04;100.00;101706.66;5061751;28;20395;-71
2022/01/06 03:59:52;;;;;;;9.90;1.75;;;;;;;5.09;100.00;101706.81;5044931;28;20040;-72
2022/01/06 04:02:17;;;;;;;15.57;2.60;;;;;;;5.05;100.00;101705.59;5048048;28;20033;-72
2022/01/06 04:04:42;;;;;;;12.68;2.08;;;;;;;5.02;100.00;101719.63;5061713;28;20070;-71
2022/01/06 04:07:08;;;;;;;10.35;1.90;;;;;;;5.12;100.00;101719.13;5046570;28;20540;-71
2022/01/06 04:09:34;;;;;;;15.23;2.50;;;;;;;5.07;100.00;101724.41;5044646;28;20224;-70
2022/01/06 04:11:59;;;;;;;14.55;2.80;;;;;;;4.89;100.00;101725.19;5048510;28;20069;-72
2022/01/06 04:14:24;;;;;;;10.65;1.70;;;;;;;4.89;100.00;101727.91;5011038;28;20395;-72
2022/01/06 04:16:57;;;;;;;8.52;1.67;;;;;;;4.99;100.00;101724.69;5054673;28;20036;-71
2022/01/06 04:19:23;;;;;;;8.32;1.27;;;;;;;4.99;100.00;101720.09;5032870;28;20119;-72
2022/01/06 04:21:48;;;;;;;10.18;1.63;;;;;;;5.21;100.00;101714.22;5060069;28;20043;-72
2022/01/06 04:24:14;;;;;;;8.07;1.27;;;;;;;5.34;100.00;101725.81;5061677;28;20036;-72
2022/01/06 04:26:40;;;;;;;10.30;1.40;;;;;;;5.22;100.00;101724.88;5060391;28;20043;-71
2022/01/06 04:29:05;;;;;;;16.15;2.65;;;;;;;5.34;100.00;101739.41;5031310;28;20036;-72
2022/01/06 04:31:31;;;;;;;12.13;2.20;;;;;;;5.45;100.00;101740.53;5064969;28;20094;-72
2022/01/06 04:33:56;;;;;;;10.05;2.33;;;;;;;5.45;100.00;101739.72;5061852;28;20055;-71
2022/01/06 04:36:22;;;;;;;14.55;2.60;;;;;;;5.21;100.00;101742.22;5063643;28;20035;-72
2022/01/06 04:38:47;;;;;;;12.95;2.40;;;;;;;5.36;100.00;101732.88;5061062;28;20321;-72
2022/01/06 04:41:12;;;;;;;11.32;1.50;;;;;;;5.06;100.00;101725.47;5063682;28;20052;-71
2022/01/06 04:43:39;;;;;;;9.00;2.03;;;;;;;5.19;100.00;101735.38;5034391;28;20039;-72
2022/01/06 04:46:04;;;;;;;9.32;1.70;;;;;;;4.98;100.00;101734.72;5044268;28;20069;-71
2022/01/06 04:48:30;;;;;;;8.63;1.40;;;;;;;5.10;100.00;101729.38;5062671;28;20053;-72
2022/01/06 04:50:55;;;;;;;7.15;1.27;;;;;;;5.02;100.00;101729.66;5062177;28;20158;-71
2022/01/06 04:53:21;;;;;;;10.02;1.77;;;;;;;5.26;100.00;101730.69;5063448;28;20119;-72
2022/01/06 04:55:46;;;;;;;10.07;1.45;;;;;;;5.15;100.00;101724.94;5040787;28;20040;-72
2022/01/06 04:58:11;;;;;;;10.95;2.08;;;;;;;5.23;100.00;101731.13;5042201;28;20029;-72
2022/01/06 05:00:37;;;;;;;11.15;1.80;;;;;;;5.17;100.00;101741.03;5045292;28;20427;-72
2022/01/06 05:03:02;;;;;;;10.88;2.20;;;;;;;5.11;100.00;101741.91;5060255;28;20131;-70
2022/01/06 05:05:28;;;;;;;6.25;1.85;;;;;;;5.16;100.00;101747.50;5063459;28;20036;-71
2022/01/06 05:07:53;;;;;;;10.35;1.65;;;;;;;5.14;100.00;101749.63;5062454;28;20048;-71
2022/01/06 05:10:20;;;;;;;13.95;2.15;;;;;;;5.01;100.00;101747.88;5060485;28;20040;-72
2022/01/06 05:12:46;;;;;;;12.25;2.38;;;;;;;5.04;100.00;101744.69;5061218;28;20052;-72
2022/01/06 05:15:14;;;;;;;9.77;1.50;;;;;;;4.96;100.00;101742.25;5063237;28;20488;-71
2022/01/06 05:17:41;;;;;;;10.85;1.90;;;;;;;5.00;100.00;101751.66;5063268;28;20028;-71
2022/01/06 05:20:07;;;;;;;16.52;2.17;;;;;;;4.97;100.00;101741.22;5061500;28;20045;-71
2022/01/06 05:22:35;;;;;;;9.38;2.13;;;;;;;4.91;100.00;101761.94;5063869;28;20109;-71
2022/01/06 05:25:01;;;;;;;9.02;1.92;;;;;;;4.82;100.00;101751.56;5059299;28;20032;-71
2022/01/06 05:27:26;;;;;;;15.88;1.92;;;;;;;4.72;100.00;101750.22;5061268;28;20041;-71
2022/01/06 05:29:52;;;;;;;15.57;2.33;;;;;;;4.66;100.00;101748.38;5019879;28;20529;-71
2022/01/06 05:32:18;;;;;;;10.52;2.33;;;;;;;4.56;100.00;101748.03;5042344;28;20082;-72
2022/01/06 05:34:43;;;;;;;15.00;2.65;;;;;;;4.49;100.00;101753.47;5048032;28;20029;-73
2022/01/06 05:37:09;;;;;;;9.35;2.20;;;;;;;4.37;100.00;101756.06;5042302;28;20107;-72
2022/01/06 05:39:34;;;;;;;14.02;1.85;;;;;;;4.37;100.00;101766.94;5039698;28;20028;-71
2022/01/06 05:42:00;;;;;;;9.80;1.73;;;;;;;4.30;100.00;101765.31;5051954;28;20475;-71
2022/01/06 05:44:26;;;;;;;10.00;1.60;;;;;;;4.19;100.00;101753.25;5062167;28;20036;-71
2022/01/06 05:46:51;;;;;;;9.27;2.35;;;;;;;4.12;100.00;101757.91;5060282;28;20063;-72
2022/01/06 05:49:17;;;;;;;7.68;1.63;;;;;;;4.03;100.00;101758.16;5062831;28;20048;-71
2022/01/06 05:51:43;;;;;;;10.23;1.75;;;;;;;4.03;100.00;101766.28;5044311;28;20032;-71
2022/01/06 05:54:08;;;;;;;14.10;2.70;;;;;;;4.01;100.00;101770.25;5041520;28;20692;-72
2022/01/06 05:56:33;;;;;;;10.30;1.92;;;;;;;3.87;100.00;101769.50;5061197;28;20040;-72
2022/01/06 05:58:59;;;;;;;9.82;2.33;;;;;;;3.86;100.00;101781.38;5061010;28;20112;-72
2022/01/06 06:01:24;;;;;;;8.40;1.80;;;;;;;3.86;100.00;101787.63;5063327;28;20456;-72
2022/01/06 06:03:50;;;;;;;9.85;2.42;;;;;;;3.81;100.00;101786.63;5060669;28;20039;-72
2022/01/06 06:06:16;;;;;;;9.98;1.90;;;;;;;3.72;100.00;101779.75;5062793;28;20040;-72
2022/01/06 06:08:41;;;;;;;10.93;2.85;;;;;;;3.67;100.00;101783.94;5060565;28;20495;-72
2022/01/06 06:11:07;;;;;;;10.45;2.25;;;;;;;3.61;100.00;101787.50;5063298;28;20491;-72
2022/01/06 06:13:33;;;;;;;16.70;3.08;;;;;;;3.59;100.00;101786.88;5062167;28;20455;-72
2022/01/06 06:15:58;;;;;;;10.85;2.25;;;;;;;3.56;100.00;101787.31;5062271;28;20130;-72
2022/01/06 06:18:23;;;;;;;11.20;2.10;;;;;;;3.52;100.00;101793.38;5064360;28;20111;-72
2022/01/06 06:20:50;;;;;;;9.93;1.95;;;;;;;3.48;100.00;101801.09;5062032;28;20036;-71
2022/01/06 06:23:16;;;;;;;11.43;3.08;;;;;;;3.37;100.00;101807.16;5062867;28;20028;-72
2022/01/06 06:25:41;;;;;;;14.23;2.63;;;;;;;3.33;100.00;101805.88;5041032;28;20502;-71
2022/01/06 06:28:07;;;;;;;10.73;3.30;;;;;;;3.32;100.00;101813.19;5043592;28;20041;-71
2022/01/06 06:30:32;;;;;;;15.93;3.17;;;;;;;3.25;100.00;101818.63;5062991;28;20105;-71
2022/01/06 06:33:00;;;;;;;10.70;3.25;;;;;;;3.22;100.00;101815.50;5060512;28;20647;-72
2022/01/06 06:35:25;;;;;;;13.70;3.55;;;;;;;3.22;100.00;101816.31;5060990;28;20028;-71
2022/01/06 06:37:52;;;;;;;12.27;3.10;;;;;;;3.16;100.00;101822.56;5059865;28;20024;-71
2022/01/06 06:40:22;;;;;;;12.05;3.25;;;;;;;3.09;100.00;101829.88;5025461;28;20032;-72
2022/01/06 06:42:48;;;;;;;10.60;3.15;;;;;;;3.15;100.00;101839.91;5044734;28;20036;-72
2022/01/06 06:45:17;;;;;;;8.18;2.58;;;;;;;3.06;100.00;101836.53;5061068;28;20207;-72
2022/01/06 06:47:43;;;;;;;9.07;2.33;;;;;;;3.05;100.00;101834.03;5062019;28;20057;-72
2022/01/06 06:50:09;;;;;;;11.50;2.90;;;;;;;3.05;100.00;101836.75;5043753;28;20028;-72
2022/01/06 06:52:34;;;;;;;9.68;3.67;;;;;;;3.02;100.00;101829.88;5060215;28;20016;-72
2022/01/06 06:55:00;;;;;;;9.98;2.80;;;;;;;3.00;100.00;101828.41;5058036;28;20051;-72
2022/01/06 06:57:25;;;;;;;15.07;2.33;;;;;;;3.01;100.00;101822.78;5041807;28;20028;-72
2022/01/06 06:59:52;;;;;;;8.30;2.65;;;;;;;3.01;100.00;101824.66;5061971;28;20111;-71
2022/01/06 07:02:18;;;;;;;11.68;2.53;;;;;;;2.68;100.00;101836.28;5044385;28;20171;-71
2022/01/06 07:04:44;;;;;;;12.25;3.10;;;;;;;3.23;100.00;101833.41;5064764;28;20086;-71
2022/01/06 07:07:09;;;;;;;11.93;3.55;;;;;;;3.48;100.00;101836.34;5062932;28;20343;-72
2022/01/06 07:09:35;;;;;;;12.48;2.50;;;;;;;3.56;100.00;101841.53;5029267;28;20028;-72
2022/01/06 07:15:44;;;;;;;14.20;2.53;;;;;;;3.92;100.00;101823.94;5026341;28;20051;-74
2022/01/06 07:18:10;;;;;;;13.02;2.55;;;;;;;4.14;100.00;101840.75;5043958;28;20043;-72
2022/01/06 07:20:35;;;;;;;12.13;2.80;;;;;;;4.12;100.00;101836.59;5044529;28;20515;-72
2022/01/06 07:23:00;;;;;;;8.68;2.00;;;;;;;4.22;100.00;101845.13;5043232;28;20132;-72
2022/01/06 07:25:35;;;;;;;11.25;2.20;;;;;;;4.13;100.00;101851.81;5025105;28;20032;-73
2022/01/06 07:28:01;;;;;;;9.15;2.22;;;;;;;4.47;100.00;101849.81;5043722;28;20029;-72
2022/01/06 07:30:29;;;;;;;8.60;1.52;;;;;;;4.53;100.00;101851.66;5058816;28;20364;-72
2022/01/06 07:32:56;;;;;;;9.30;1.30;;;;;;;4.38;100.00;101855.47;5065648;28;20024;-71
2022/01/06 07:35:25;;;;;;;4.47;1.13;;;;;;;4.34;100.00;101858.84;5057218;28;20025;-72
2022/01/06 07:37:51;;;;;;;4.28;1.58;;;;;;;4.50;100.00;101858.34;5044724;28;20032;-71
2022/01/06 07:40:18;;;;;;;4.60;0.80;;;;;;;4.70;100.00;101866.38;5042111;28;20391;-73
2022/01/06 07:42:44;;;;;;;4.07;1.45;;;;;;;4.54;100.00;101859.59;5064067;28;20035;-73
2022/01/06 07:45:10;;;;;;;4.90;1.20;;;;;;;4.53;100.00;101854.38;5062999;28;20036;-71
2022/01/06 07:47:43;;;;;;;2.85;0.82;;;;;;;4.94;100.00;101858.53;5063794;28;20048;-78
2022/01/06 07:50:08;;;;;;;;;;;;;;;5.07;100.00;101861.13;5062818;28;20507;-70
2022/01/06 07:52:33;;;;;;;4.93;1.10;;;;;;;5.12;100.00;101866.75;5064350;28;19940;-72
2022/01/06 07:55:00;;;;;;;4.85;1.13;;;;;;;5.10;100.00;101866.13;5059916;28;20571;-72
2022/01/06 07:57:25;;;;;;;5.72;1.13;;;;;;;4.76;100.00;101864.69;5045401;28;20033;-70
2022/01/06 07:59:51;;;;;;;5.57;1.25;;;;;;;4.95;100.00;101865.59;5065174;28;20507;-71
2022/01/06 08:02:16;;;;;;;7.40;1.23;;;;;;;4.95;100.00;101873.75;5047771;28;20048;-71
2022/01/06 08:04:41;;;;;;;7.22;1.27;;;;;;;5.17;100.00;101876.13;5047890;28;20115;-73
2022/01/06 08:07:07;;;;;;;4.97;1.42;;;;;;;5.21;100.00;101880.88;5052788;28;20033;-72
2022/01/06 08:09:32;;;;;;;5.70;1.33;;;;;;;5.25;100.00;101884.03;5010772;28;20344;-71
2022/01/06 08:11:58;;;;;;;8.38;1.63;;;;;;;5.17;100.00;101878.84;5025838;28;20518;-72
2022/01/06 08:14:24;;;;;;;5.90;1.40;;;;;;;5.15;100.00;101879.06;5015826;28;20036;-72
2022/01/06 08:16:49;;;;;;;7.43;2.00;;;;;;;5.11;100.00;101889.53;5064403;28;20384;-72
2022/01/06 08:19:16;;;;;;;8.65;2.47;;;;;;;5.07;100.00;101882.06;5064870;28;20040;-72
2022/01/06 08:21:41;;;;;;;6.28;1.70;;;;;;;5.00;100.00;101884.81;5047221;28;20032;-71
2022/01/06 08:24:07;;;;;;;9.13;1.92;;;;;;;4.94;100.00;101881.09;5061490;28;20035;-72
2022/01/06 08:26:32;;;;;;;6.55;1.70;;;;;;;4.85;100.00;101882.38;5060678;28;20036;-72
2022/01/06 08:28:57;;;;;;;5.32;1.52;;;;;;;4.63;100.00;101884.63;5065053;28;20468;-71
2022/01/06 08:31:23;;;;;;;7.32;1.80;;;;;;;4.55;100.00;101882.16;5061746;28;20047;-71
2022/01/06 08:33:49;;;;;;;4.63;1.40;;;;;;;4.62;100.00;101893.81;5064896;28;20036;-71
2022/01/06 08:36:15;;;;;;;5.28;1.77;;;;;;;4.64;100.00;101885.44;5045011;28;20035;-71
2022/01/06 08:38:40;;;;;;;5.88;1.50;;;;;;;4.63;100.00;101889.22;5062066;28;20039;-72
2022/01/06 08:41:05;;;;;;;6.88;1.75;;;;;;;4.53;100.00;101884.25;5050478;28;20033;-73
2022/01/06 08:43:31;;;;;;;8.70;1.80;;;;;;;4.50;100.00;101890.94;5026245;28;20475;-72
2022/01/06 08:45:58;;;;;;;4.65;1.73;;;;;;;4.44;100.00;101886.34;5043344;28;20062;-72
2022/01/06 08:48:25;;;;;;;8.57;1.92;;;;;;;4.50;100.00;101895.53;5050402;28;20511;-72
2022/01/06 08:50:51;;;;;;;8.10;2.20;;;;;;;4.50;100.00;101890.94;5062660;28;20051;-71
2022/01/06 08:53:16;;;;;;;10.05;3.42;;;;;;;4.55;100.00;101893.00;5067829;28;20072;-70
2022/01/06 08:55:46;;;;;;;19.08;7.53;;;;;;;4.51;100.00;101892.63;5066957;28;20532;-70
2022/01/06 08:58:11;;;;;;;19.73;7.57;;;;;;;4.44;100.00;101890.97;5034072;28;20451;-73
2022/01/06 09:00:39;;;;;;;18.05;7.63;;;;;;;4.44;100.00;101891.78;5027881;28;20055;-72
2022/01/06 09:03:06;;;;;;;20.08;7.70;;;;;;;4.46;100.00;101899.72;5044421;28;20181;-72
2022/01/06 09:05:33;;;;;;;17.42;7.45;;;;;;;4.38;100.00;101898.09;5061300;28;20051;-72
2022/01/06 09:07:59;;;;;;;15.57;7.22;;;;;;;4.33;100.00;101898.75;5063527;28;20100;-72
2022/01/06 09:10:29;;;;;;;12.50;6.10;;;;;;;4.28;100.00;101892.28;5040606;28;20500;-71
2022/01/06 09:12:55;;;;;;;11.63;4.88;;;;;;;4.30;100.00;101890.19;5062856;28;20042;-73
2022/01/06 09:15:21;;;;;;;11.27;4.82;;;;;;;4.60;100.00;101904.06;5027531;28;20028;-73
2022/01/06 09:17:46;;;;;;;10.30;5.15;;;;;;;4.66;100.00;101895.06;5063417;28;20070;-73
2022/01/06 09:20:12;;;;;;;11.80;5.07;;;;;;;4.76;100.00;101902.72;5026641;28;20035;-72
2022/01/06 09:22:37;;;;;;;11.57;4.20;;;;;;;4.84;100.00;101902.47;5044727;28;20521;-72
2022/01/06 09:25:04;;;;;;;9.68;2.88;;;;;;;4.79;100.00;101910.44;5060336;28;20044;-71
2022/01/06 09:27:30;;;;;;;5.75;1.90;;;;;;;5.04;100.00;101907.78;5043430;28;20119;-74
2022/01/06 09:29:56;;;;;;;9.38;1.80;;;;;;;5.26;100.00;101907.41;5045484;28;20135;-72
2022/01/06 09:32:21;;;;;;;6.78;2.40;;;;;;;5.53;100.00;101916.22;5060445;28;20039;-73
2022/01/06 09:34:47;;;;;;;7.63;1.95;;;;;;;5.75;100.00;101910.38;5046325;28;20090;-73
2022/01/06 09:37:13;;;;;;;7.10;2.08;;;;;;;5.80;100.00;101908.63;5060320;28;20032;-72
2022/01/06 09:39:38;;;;;;;7.15;2.10;;;;;;;6.06;100.00;101917.63;5061358;28;20036;-73
2022/01/06 09:42:04;;;;;;;7.68;2.00;;;;;;;6.27;100.00;101923.72;5043470;28;20119;-71
2022/01/06 09:44:31;;;;;;;6.53;2.10;;;;;;;6.27;100.00;101910.09;5059658;28;20137;-72
2022/01/06 09:46:56;;;;;;;7.28;1.90;;;;;;;6.47;100.00;101916.13;5063873;28;20028;-71
2022/01/06 09:49:23;;;;;;;9.88;2.22;;;;;;;6.53;100.00;101917.13;5061658;28;20055;-70
2022/01/06 09:51:49;;;;;;;14.18;3.30;;;;;;;6.35;100.00;101913.34;5064128;28;20051;-71
2022/01/06 09:54:15;;;;;;;12.70;3.40;;;;;;;6.16;100.00;101920.66;5057324;28;20117;-73
2022/01/06 09:56:40;;;;;;;10.32;3.53;;;;;;;5.95;100.00;101918.34;5059915;28;20400;-73
2022/01/06 09:59:07;;;;;;;12.57;3.22;;;;;;;6.39;100.00;101914.53;5063192;28;20044;-72
2022/01/06 10:01:32;;;;;;;9.73;2.80;;;;;;;6.80;100.00;101917.59;5061137;28;20250;-72
2022/01/06 10:03:58;;;;;;;10.35;2.85;;;;;;;7.06;100.00;101919.09;5062589;28;20040;-72
2022/01/06 10:06:26;;;;;;;11.30;3.60;;;;;;;7.13;100.00;101911.69;5061669;28;20044;-71
2022/01/06 10:08:54;;;;;;;14.35;5.07;;;;;;;7.13;100.00;101919.00;5058803;28;20431;-71
2022/01/06 10:11:25;;;;;;;12.55;5.75;;;;;;;6.94;100.00;101918.25;5060873;28;20191;-73
2022/01/06 10:13:56;;;;;;;16.73;6.60;;;;;;;6.96;100.00;101921.56;5060580;28;20148;-71
2022/01/06 10:16:23;;;;;;;13.45;4.63;;;;;;;6.86;100.00;101919.41;5059837;28;20107;-71
2022/01/06 10:18:54;;;;;;;11.63;4.10;;;;;;;6.73;100.00;101919.59;5061550;28;20108;-71
2022/01/06 10:21:20;;;;;;;11.52;3.97;;;;;;;6.83;100.00;101906.22;5060499;28;20040;-72
2022/01/06 10:24:04;;;;;;;10.52;3.78;;;;;;;6.82;100.00;101912.72;5042804;28;20410;-71
2022/01/06 10:26:30;;;;;;;13.07;3.55;;;;;;;6.83;100.00;101911.69;5057374;28;20284;-71
2022/01/06 10:28:56;;;;;;;11.98;3.38;;;;;;;6.78;100.00;101920.53;5062448;28;20107;-71
2022/01/06 10:31:26;;;;;;;8.45;3.17;;;;;;;6.82;100.00;101918.19;5058256;28;20146;-72
2022/01/06 10:33:52;;;;;;;13.30;3.75;;;;;;;6.91;100.00;101903.19;5062366;28;20201;-72
2022/01/06 10:36:17;;;;;;;14.30;3.50;;;;;;;6.91;100.00;101911.34;5055760;28;20151;-72
2022/01/06 10:38:52;;;;;;;9.63;3.00;;;;;;;7.30;100.00;101913.72;5043498;28;20040;-71
2022/01/06 10:41:18;;;;;;;9.98;3.17;;;;;;;7.49;100.00;101903.53;5043023;28;20032;-72
2022/01/06 10:43:56;;;;;;;11.93;2.75;;;;;;;6.48;100.00;101909.63;5028802;28;20028;-72
2022/01/06 10:46:37;;;;;;;14.60;2.17;;;;;;;6.32;100.00;101913.78;5045635;28;20116;-71
2022/01/06 10:49:11;;;;;;;10.48;2.33;;;;;;;6.32;100.00;101915.69;5067863;28;20045;-71
2022/01/06 10:51:43;;;;;;;7.32;1.92;;;;;;;6.17;100.00;101908.72;5051445;28;20087;-71
2022/01/06 10:54:12;;;;;;;9.80;2.53;;;;;;;6.39;100.00;101911.81;5063082;28;20098;-71
2022/01/06 10:56:37;;;;;;;10.45;2.47;;;;;;;6.48;100.00;101912.34;5039794;28;20404;-73
2022/01/06 10:59:03;;;;;;;10.55;2.33;;;;;;;6.60;100.00;101909.69;5043934;28;20033;-72
2022/01/06 11:01:33;;;;;;;11.45;2.55;;;;;;;6.45;100.00;101910.06;5041925;28;20516;-71
2022/01/06 11:03:58;;;;;;;10.20;3.20;;;;;;;6.61;100.00;101906.72;5052681;28;20461;-71
2022/01/06 11:06:25;;;;;;;14.90;2.60;;;;;;;6.52;100.00;101907.28;5063785;28;20119;-73
2022/01/06 11:08:51;;;;;;;8.40;2.10;;;;;;;6.71;100.00;101902.63;5055883;28;20136;-72
2022/01/06 11:11:32;;;;;;;9.65;2.10;;;;;;;6.69;100.00;101902.00;5025462;28;20459;-73
2022/01/06 11:13:57;;;;;;;10.68;2.00;;;;;;;6.55;100.00;101904.91;5044302;28;20043;-72
2022/01/06 11:16:23;;;;;;;10.95;2.10;;;;;;;6.86;100.00;101886.69;5041336;28;20119;-73
2022/01/06 11:18:57;;;;;;;8.40;2.00;;;;;;;6.83;100.00;101898.03;5045380;28;20445;-73
2022/01/06 11:21:41;;;;;;;11.90;2.00;;;;;;;6.98;100.00;101903.94;5043982;28;20120;-71
2022/01/06 11:24:17;;;;;;;10.57;2.00;;;;;;;6.90;100.00;101904.22;5058887;28;20036;-72
2022/01/06 11:26:55;;;;;;;8.93;2.03;;;;;;;6.90;100.00;101889.78;5062834;28;20410;-72
2022/01/06 11:29:29;;;;;;;6.57;1.67;;;;;;;6.84;100.00;101890.69;5064536;28;20047;-73
2022/01/06 11:31:56;;;;;;;6.85;1.85;;;;;;;6.98;100.00;101884.84;5065543;28;20043;-73